sensor_id;sensor_type;location;lat;lon;timestamp;P1;durP1;ratioP1;P2;durP2;ratioP2
32780;SDS011;19136;47.032;15.502;2023-04-24T00:00:10;12.07;;;8.23;;
32780;SDS011;19136;47.032;15.502;2023-04-24T00:02:38;24.15;;;9.48;;
32780;SDS011;19136;47.032;15.502;2023-04-24T00:05:04;13.10;;;8.13;;
32780;SDS011;19136;47.032;15.502;2023-04-24T00:07:31;15.75;;;8.23;;
32780;SDS011;19136;47.032;15.502;2023-04-24T00:09:56;32.67;;;8.93;;
32780;SDS011;19136;47.032;15.502;2023-04-24T00:12:22;19.60;;;9.15;;
32780;SDS011;19136;47.032;15.502;2023-04-24T00:14:48;11.02;;;8.18;;
32780;SDS011;19136;47.032;15.502;2023-04-24T00:17:13;11.70;;;8.73;;
32780;SDS011;19136;47.032;15.502;2023-04-24T00:19:39;29.73;;;10.00;;
32780;SDS011;19136;47.032;15.502;2023-04-24T00:22:05;20.65;;;9.00;;
32780;SDS011;19136;47.032;15.502;2023-04-24T00:24:30;11.35;;;7.88;;
32780;SDS011;19136;47.032;15.502;2023-04-24T00:26:56;13.27;;;8.43;;
32780;SDS011;19136;47.032;15.502;2023-04-24T00:29:22;11.20;;;8.40;;
32780;SDS011;19136;47.032;15.502;2023-04-24T00:31:48;10.73;;;8.00;;
32780;SDS011;19136;47.032;15.502;2023-04-24T00:34:14;12.65;;;7.60;;
32780;SDS011;19136;47.032;15.502;2023-04-24T00:36:39;12.02;;;8.18;;
32780;SDS011;19136;47.032;15.502;2023-04-24T00:39:05;8.63;;;6.82;;
32780;SDS011;19136;47.032;15.502;2023-04-24T00:41:34;10.30;;;7.80;;
32780;SDS011;19136;47.032;15.502;2023-04-24T00:43:59;11.60;;;8.40;;
32780;SDS011;19136;47.032;15.502;2023-04-24T00:46:25;11.85;;;7.57;;
32780;SDS011;19136;47.032;15.502;2023-04-24T00:48:50;10.35;;;7.47;;
32780;SDS011;19136;47.032;15.502;2023-04-24T00:51:17;13.98;;;8.23;;
32780;SDS011;19136;47.032;15.502;2023-04-24T00:53:43;11.27;;;8.07;;
32780;SDS011;19136;47.032;15.502;2023-04-24T00:56:08;10.43;;;7.28;;
32780;SDS011;19136;47.032;15.502;2023-04-24T00:58:35;10.73;;;7.65;;
32780;SDS011;19136;47.032;15.502;2023-04-24T01:01:00;15.95;;;7.43;;
32780;SDS011;19136;47.032;15.502;2023-04-24T01:03:28;12.18;;;7.95;;
32780;SDS011;19136;47.032;15.502;2023-04-24T01:05:58;9.13;;;6.65;;
32780;SDS011;19136;47.032;15.502;2023-04-24T01:08:24;14.23;;;7.95;;
32780;SDS011;19136;47.032;15.502;2023-04-24T01:10:53;10.63;;;6.78;;
32780;SDS011;19136;47.032;15.502;2023-04-24T01:13:19;17.20;;;8.68;;
32780;SDS011;19136;47.032;15.502;2023-04-24T01:15:46;15.43;;;6.82;;
32780;SDS011;19136;47.032;15.502;2023-04-24T01:18:12;11.65;;;6.82;;
32780;SDS011;19136;47.032;15.502;2023-04-24T01:20:39;12.85;;;7.05;;
32780;SDS011;19136;47.032;15.502;2023-04-24T01:23:06;8.55;;;6.80;;
32780;SDS011;19136;47.032;15.502;2023-04-24T01:25:32;10.40;;;6.75;;
32780;SDS011;19136;47.032;15.502;2023-04-24T01:27:58;11.23;;;6.55;;
32780;SDS011;19136;47.032;15.502;2023-04-24T01:30:25;10.43;;;7.38;;
32780;SDS011;19136;47.032;15.502;2023-04-24T01:32:51;12.02;;;8.20;;
32780;SDS011;19136;47.032;15.502;2023-04-24T01:35:18;10.63;;;7.00;;
32780;SDS011;19136;47.032;15.502;2023-04-24T01:37:44;11.15;;;7.85;;
32780;SDS011;19136;47.032;15.502;2023-04-24T01:40:10;13.18;;;6.57;;
32780;SDS011;19136;47.032;15.502;2023-04-24T01:42:36;11.00;;;7.50;;
32780;SDS011;19136;47.032;15.502;2023-04-24T01:45:02;13.85;;;7.18;;
32780;SDS011;19136;47.032;15.502;2023-04-24T01:47:29;9.85;;;6.97;;
32780;SDS011;19136;47.032;15.502;2023-04-24T01:49:56;12.52;;;6.55;;
32780;SDS011;19136;47.032;15.502;2023-04-24T01:52:22;15.20;;;8.00;;
32780;SDS011;19136;47.032;15.502;2023-04-24T01:54:47;12.43;;;7.35;;
32780;SDS011;19136;47.032;15.502;2023-04-24T01:57:14;11.60;;;6.90;;
32780;SDS011;19136;47.032;15.502;2023-04-24T01:59:40;13.25;;;6.75;;
32780;SDS011;19136;47.032;15.502;2023-04-24T02:02:07;10.77;;;6.40;;
32780;SDS011;19136;47.032;15.502;2023-04-24T02:04:34;11.80;;;6.78;;
32780;SDS011;19136;47.032;15.502;2023-04-24T02:07:00;12.73;;;7.93;;
32780;SDS011;19136;47.032;15.502;2023-04-24T02:09:25;16.17;;;9.27;;
32780;SDS011;19136;47.032;15.502;2023-04-24T02:11:51;11.13;;;8.10;;
32780;SDS011;19136;47.032;15.502;2023-04-24T02:14:17;15.35;;;8.82;;
32780;SDS011;19136;47.032;15.502;2023-04-24T02:16:43;12.85;;;6.72;;
32780;SDS011;19136;47.032;15.502;2023-04-24T02:19:09;14.38;;;8.85;;
32780;SDS011;19136;47.032;15.502;2023-04-24T02:21:35;14.82;;;7.28;;
32780;SDS011;19136;47.032;15.502;2023-04-24T02:24:01;10.88;;;6.95;;
32780;SDS011;19136;47.032;15.502;2023-04-24T02:26:26;11.48;;;7.30;;
32780;SDS011;19136;47.032;15.502;2023-04-24T02:28:52;15.05;;;9.70;;
32780;SDS011;19136;47.032;15.502;2023-04-24T02:31:19;13.82;;;8.18;;
32780;SDS011;19136;47.032;15.502;2023-04-24T02:33:48;11.18;;;7.97;;
32780;SDS011;19136;47.032;15.502;2023-04-24T02:36:13;12.00;;;7.95;;
32780;SDS011;19136;47.032;15.502;2023-04-24T02:38:39;16.23;;;7.63;;
32780;SDS011;19136;47.032;15.502;2023-04-24T02:41:05;15.52;;;8.75;;
32780;SDS011;19136;47.032;15.502;2023-04-24T02:43:31;13.43;;;6.85;;
32780;SDS011;19136;47.032;15.502;2023-04-24T02:45:58;13.05;;;7.40;;
32780;SDS011;19136;47.032;15.502;2023-04-24T02:48:24;12.07;;;7.15;;
32780;SDS011;19136;47.032;15.502;2023-04-24T02:50:50;15.23;;;7.18;;
32780;SDS011;19136;47.032;15.502;2023-04-24T02:53:16;10.45;;;6.28;;
32780;SDS011;19136;47.032;15.502;2023-04-24T02:55:42;11.48;;;6.40;;
32780;SDS011;19136;47.032;15.502;2023-04-24T02:58:07;10.95;;;6.65;;
32780;SDS011;19136;47.032;15.502;2023-04-24T03:00:33;11.23;;;6.80;;
32780;SDS011;19136;47.032;15.502;2023-04-24T03:02:59;12.82;;;6.97;;
32780;SDS011;19136;47.032;15.502;2023-04-24T03:05:25;10.68;;;6.85;;
32780;SDS011;19136;47.032;15.502;2023-04-24T03:07:50;11.30;;;6.88;;
32780;SDS011;19136;47.032;15.502;2023-04-24T03:10:17;14.85;;;7.00;;
32780;SDS011;19136;47.032;15.502;2023-04-24T03:12:43;11.52;;;5.97;;
32780;SDS011;19136;47.032;15.502;2023-04-24T03:15:09;13.52;;;7.57;;
32780;SDS011;19136;47.032;15.502;2023-04-24T03:17:36;9.45;;;6.18;;
32780;SDS011;19136;47.032;15.502;2023-04-24T03:20:02;16.63;;;8.50;;
32780;SDS011;19136;47.032;15.502;2023-04-24T03:22:31;10.60;;;5.20;;
32780;SDS011;19136;47.032;15.502;2023-04-24T03:24:58;7.97;;;5.85;;
32780;SDS011;19136;47.032;15.502;2023-04-24T03:27:24;13.52;;;6.20;;
32780;SDS011;19136;47.032;15.502;2023-04-24T03:29:55;13.50;;;7.20;;
32780;SDS011;19136;47.032;15.502;2023-04-24T03:32:25;12.10;;;6.80;;
32780;SDS011;19136;47.032;15.502;2023-04-24T03:34:51;14.07;;;6.85;;
32780;SDS011;19136;47.032;15.502;2023-04-24T03:37:17;8.52;;;5.60;;
32780;SDS011;19136;47.032;15.502;2023-04-24T03:39:49;16.40;;;7.57;;
32780;SDS011;19136;47.032;15.502;2023-04-24T03:42:18;9.75;;;6.00;;
32780;SDS011;19136;47.032;15.502;2023-04-24T03:44:50;10.27;;;6.20;;
32780;SDS011;19136;47.032;15.502;2023-04-24T03:47:16;16.38;;;7.53;;
32780;SDS011;19136;47.032;15.502;2023-04-24T03:49:42;9.85;;;6.68;;
32780;SDS011;19136;47.032;15.502;2023-04-24T03:52:08;10.50;;;6.32;;
32780;SDS011;19136;47.032;15.502;2023-04-24T03:54:34;18.88;;;7.45;;
32780;SDS011;19136;47.032;15.502;2023-04-24T03:57:00;22.10;;;7.43;;
32780;SDS011;19136;47.032;15.502;2023-04-24T03:59:28;11.00;;;6.90;;
32780;SDS011;19136;47.032;15.502;2023-04-24T04:02:07;20.38;;;8.73;;
32780;SDS011;19136;47.032;15.502;2023-04-24T04:04:33;11.90;;;6.57;;
32780;SDS011;19136;47.032;15.502;2023-04-24T04:06:59;14.48;;;6.78;;
32780;SDS011;19136;47.032;15.502;2023-04-24T04:09:29;18.65;;;6.95;;
32780;SDS011;19136;47.032;15.502;2023-04-24T04:11:55;21.20;;;7.80;;
32780;SDS011;19136;47.032;15.502;2023-04-24T04:14:21;16.10;;;6.82;;
32780;SDS011;19136;47.032;15.502;2023-04-24T04:16:47;21.05;;;7.57;;
32780;SDS011;19136;47.032;15.502;2023-04-24T04:19:13;13.52;;;6.90;;
32780;SDS011;19136;47.032;15.502;2023-04-24T04:21:39;20.60;;;8.20;;
32780;SDS011;19136;47.032;15.502;2023-04-24T04:24:27;17.95;;;7.85;;
32780;SDS011;19136;47.032;15.502;2023-04-24T04:26:53;13.77;;;7.97;;
32780;SDS011;19136;47.032;15.502;2023-04-24T04:29:28;11.63;;;6.40;;
32780;SDS011;19136;47.032;15.502;2023-04-24T04:31:55;13.23;;;6.85;;
32780;SDS011;19136;47.032;15.502;2023-04-24T04:34:20;19.00;;;9.10;;
32780;SDS011;19136;47.032;15.502;2023-04-24T04:36:48;16.15;;;8.38;;
32780;SDS011;19136;47.032;15.502;2023-04-24T04:39:30;15.43;;;8.80;;
32780;SDS011;19136;47.032;15.502;2023-04-24T04:42:01;11.60;;;7.50;;
32780;SDS011;19136;47.032;15.502;2023-04-24T04:44:34;12.40;;;7.20;;
32780;SDS011;19136;47.032;15.502;2023-04-24T04:47:01;14.93;;;7.78;;
32780;SDS011;19136;47.032;15.502;2023-04-24T04:49:32;17.15;;;7.65;;
32780;SDS011;19136;47.032;15.502;2023-04-24T04:51:59;13.70;;;8.18;;
32780;SDS011;19136;47.032;15.502;2023-04-24T04:54:26;12.95;;;7.68;;
32780;SDS011;19136;47.032;15.502;2023-04-24T04:56:52;12.32;;;8.32;;
32780;SDS011;19136;47.032;15.502;2023-04-24T04:59:18;20.27;;;7.90;;
32780;SDS011;19136;47.032;15.502;2023-04-24T05:01:45;15.02;;;8.07;;
32780;SDS011;19136;47.032;15.502;2023-04-24T05:04:12;15.38;;;8.60;;
32780;SDS011;19136;47.032;15.502;2023-04-24T05:06:38;18.40;;;8.98;;
32780;SDS011;19136;47.032;15.502;2023-04-24T05:09:05;10.85;;;6.43;;
32780;SDS011;19136;47.032;15.502;2023-04-24T05:11:46;8.98;;;5.20;;
32780;SDS011;19136;47.032;15.502;2023-04-24T05:14:12;10.10;;;6.20;;
32780;SDS011;19136;47.032;15.502;2023-04-24T05:16:39;16.83;;;5.95;;
32780;SDS011;19136;47.032;15.502;2023-04-24T05:19:06;9.23;;;5.15;;
32780;SDS011;19136;47.032;15.502;2023-04-24T05:21:35;6.97;;;4.70;;
32780;SDS011;19136;47.032;15.502;2023-04-24T05:24:01;10.93;;;5.05;;
32780;SDS011;19136;47.032;15.502;2023-04-24T05:26:59;9.50;;;5.68;;
32780;SDS011;19136;47.032;15.502;2023-04-24T05:29:32;12.95;;;5.45;;
32780;SDS011;19136;47.032;15.502;2023-04-24T05:31:58;13.95;;;5.38;;
32780;SDS011;19136;47.032;15.502;2023-04-24T05:34:25;8.30;;;4.93;;
32780;SDS011;19136;47.032;15.502;2023-04-24T05:36:54;8.85;;;4.82;;
32780;SDS011;19136;47.032;15.502;2023-04-24T05:39:20;11.40;;;4.70;;
32780;SDS011;19136;47.032;15.502;2023-04-24T05:41:45;6.88;;;4.50;;
32780;SDS011;19136;47.032;15.502;2023-04-24T05:44:11;15.65;;;4.57;;
32780;SDS011;19136;47.032;15.502;2023-04-24T05:46:37;8.02;;;5.80;;
32780;SDS011;19136;47.032;15.502;2023-04-24T05:49:02;7.95;;;4.55;;
32780;SDS011;19136;47.032;15.502;2023-04-24T05:51:30;10.93;;;4.88;;
32780;SDS011;19136;47.032;15.502;2023-04-24T05:53:57;8.10;;;4.32;;
32780;SDS011;19136;47.032;15.502;2023-04-24T05:56:24;6.57;;;4.22;;
32780;SDS011;19136;47.032;15.502;2023-04-24T05:58:50;9.68;;;4.47;;
32780;SDS011;19136;47.032;15.502;2023-04-24T06:01:16;13.38;;;4.55;;
32780;SDS011;19136;47.032;15.502;2023-04-24T06:03:45;6.43;;;4.85;;
32780;SDS011;19136;47.032;15.502;2023-04-24T06:06:10;8.52;;;4.47;;
32780;SDS011;19136;47.032;15.502;2023-04-24T06:08:36;14.52;;;5.28;;
32780;SDS011;19136;47.032;15.502;2023-04-24T06:11:02;10.52;;;5.93;;
32780;SDS011;19136;47.032;15.502;2023-04-24T06:13:27;11.95;;;5.70;;
32780;SDS011;19136;47.032;15.502;2023-04-24T06:16:12;11.93;;;6.40;;
32780;SDS011;19136;47.032;15.502;2023-04-24T06:18:40;13.45;;;7.90;;
32780;SDS011;19136;47.032;15.502;2023-04-24T06:21:06;26.65;;;9.50;;
32780;SDS011;19136;47.032;15.502;2023-04-24T06:23:31;24.25;;;9.82;;
32780;SDS011;19136;47.032;15.502;2023-04-24T06:25:59;27.00;;;9.02;;
32780;SDS011;19136;47.032;15.502;2023-04-24T06:28:25;13.73;;;9.00;;
32780;SDS011;19136;47.032;15.502;2023-04-24T06:30:51;21.25;;;9.48;;
32780;SDS011;19136;47.032;15.502;2023-04-24T06:33:16;25.88;;;10.65;;
32780;SDS011;19136;47.032;15.502;2023-04-24T06:35:42;20.85;;;9.90;;
32780;SDS011;19136;47.032;15.502;2023-04-24T06:38:08;14.93;;;8.10;;
32780;SDS011;19136;47.032;15.502;2023-04-24T06:40:33;19.13;;;9.80;;
32780;SDS011;19136;47.032;15.502;2023-04-24T06:42:59;23.15;;;10.63;;
32780;SDS011;19136;47.032;15.502;2023-04-24T06:45:28;22.58;;;10.05;;
32780;SDS011;19136;47.032;15.502;2023-04-24T06:47:55;16.20;;;9.73;;
32780;SDS011;19136;47.032;15.502;2023-04-24T06:50:21;17.33;;;9.75;;
32780;SDS011;19136;47.032;15.502;2023-04-24T06:52:47;21.23;;;10.02;;
32780;SDS011;19136;47.032;15.502;2023-04-24T06:55:12;15.45;;;9.00;;
32780;SDS011;19136;47.032;15.502;2023-04-24T06:57:40;18.70;;;9.40;;
32780;SDS011;19136;47.032;15.502;2023-04-24T07:00:06;14.65;;;8.93;;
32780;SDS011;19136;47.032;15.502;2023-04-24T07:02:32;15.18;;;8.55;;
32780;SDS011;19136;47.032;15.502;2023-04-24T07:04:58;13.02;;;8.02;;
32780;SDS011;19136;47.032;15.502;2023-04-24T07:07:23;16.92;;;9.35;;
32780;SDS011;19136;47.032;15.502;2023-04-24T07:09:49;16.98;;;8.45;;
32780;SDS011;19136;47.032;15.502;2023-04-24T07:12:16;16.13;;;8.68;;
32780;SDS011;19136;47.032;15.502;2023-04-24T07:14:42;26.90;;;10.15;;
32780;SDS011;19136;47.032;15.502;2023-04-24T07:17:07;18.13;;;9.30;;
32780;SDS011;19136;47.032;15.502;2023-04-24T07:19:33;22.92;;;9.35;;
32780;SDS011;19136;47.032;15.502;2023-04-24T07:22:00;23.90;;;9.45;;
32780;SDS011;19136;47.032;15.502;2023-04-24T07:24:26;21.08;;;8.63;;
32780;SDS011;19136;47.032;15.502;2023-04-24T07:26:52;22.50;;;9.57;;
32780;SDS011;19136;47.032;15.502;2023-04-24T07:29:19;16.52;;;10.38;;
32780;SDS011;19136;47.032;15.502;2023-04-24T07:31:45;17.60;;;10.30;;
32780;SDS011;19136;47.032;15.502;2023-04-24T07:34:10;18.90;;;11.18;;
32780;SDS011;19136;47.032;15.502;2023-04-24T07:36:36;24.00;;;12.40;;
32780;SDS011;19136;47.032;15.502;2023-04-24T07:39:04;28.05;;;15.55;;
32780;SDS011;19136;47.032;15.502;2023-04-24T07:41:30;21.73;;;12.07;;
32780;SDS011;19136;47.032;15.502;2023-04-24T07:43:55;19.83;;;12.90;;
32780;SDS011;19136;47.032;15.502;2023-04-24T07:46:21;26.30;;;13.98;;
32780;SDS011;19136;47.032;15.502;2023-04-24T07:48:48;24.17;;;13.48;;
32780;SDS011;19136;47.032;15.502;2023-04-24T07:51:14;23.48;;;12.65;;
32780;SDS011;19136;47.032;15.502;2023-04-24T07:53:40;25.50;;;14.10;;
32780;SDS011;19136;47.032;15.502;2023-04-24T07:56:06;29.58;;;15.00;;
32780;SDS011;19136;47.032;15.502;2023-04-24T07:58:32;31.42;;;14.95;;
32780;SDS011;19136;47.032;15.502;2023-04-24T08:00:58;33.08;;;15.75;;
32780;SDS011;19136;47.032;15.502;2023-04-24T08:03:23;31.98;;;16.80;;
32780;SDS011;19136;47.032;15.502;2023-04-24T08:05:50;27.33;;;13.60;;
32780;SDS011;19136;47.032;15.502;2023-04-24T08:08:16;35.30;;;14.05;;
32780;SDS011;19136;47.032;15.502;2023-04-24T08:10:42;31.48;;;16.92;;
32780;SDS011;19136;47.032;15.502;2023-04-24T08:13:08;24.45;;;14.65;;
32780;SDS011;19136;47.032;15.502;2023-04-24T08:15:33;33.03;;;18.27;;
32780;SDS011;19136;47.032;15.502;2023-04-24T08:17:59;32.85;;;17.25;;
32780;SDS011;19136;47.032;15.502;2023-04-24T08:20:25;24.50;;;14.15;;
32780;SDS011;19136;47.032;15.502;2023-04-24T08:22:51;35.50;;;17.08;;
32780;SDS011;19136;47.032;15.502;2023-04-24T08:25:16;36.95;;;17.60;;
32780;SDS011;19136;47.032;15.502;2023-04-24T08:27:43;26.30;;;13.90;;
32780;SDS011;19136;47.032;15.502;2023-04-24T08:30:09;28.63;;;13.45;;
32780;SDS011;19136;47.032;15.502;2023-04-24T08:32:35;26.40;;;16.05;;
32780;SDS011;19136;47.032;15.502;2023-04-24T08:35:01;28.70;;;15.07;;
32780;SDS011;19136;47.032;15.502;2023-04-24T08:37:27;26.02;;;15.27;;
32780;SDS011;19136;47.032;15.502;2023-04-24T08:39:53;27.63;;;16.75;;
32780;SDS011;19136;47.032;15.502;2023-04-24T08:42:19;36.45;;;19.20;;
32780;SDS011;19136;47.032;15.502;2023-04-24T08:44:46;28.92;;;16.70;;
32780;SDS011;19136;47.032;15.502;2023-04-24T08:47:12;32.13;;;16.90;;
32780;SDS011;19136;47.032;15.502;2023-04-24T08:49:38;37.72;;;18.30;;
32780;SDS011;19136;47.032;15.502;2023-04-24T08:52:07;28.38;;;15.63;;
32780;SDS011;19136;47.032;15.502;2023-04-24T08:54:36;27.63;;;15.05;;
32780;SDS011;19136;47.032;15.502;2023-04-24T08:57:02;31.08;;;17.98;;
32780;SDS011;19136;47.032;15.502;2023-04-24T08:59:31;24.83;;;15.10;;
32780;SDS011;19136;47.032;15.502;2023-04-24T09:01:58;23.33;;;14.90;;
32780;SDS011;19136;47.032;15.502;2023-04-24T09:04:23;20.83;;;14.30;;
32780;SDS011;19136;47.032;15.502;2023-04-24T09:06:58;25.05;;;14.32;;
32780;SDS011;19136;47.032;15.502;2023-04-24T09:09:25;22.95;;;14.10;;
32780;SDS011;19136;47.032;15.502;2023-04-24T09:11:51;24.45;;;15.50;;
32780;SDS011;19136;47.032;15.502;2023-04-24T09:14:18;34.33;;;15.43;;
32780;SDS011;19136;47.032;15.502;2023-04-24T09:16:45;29.48;;;15.45;;
32780;SDS011;19136;47.032;15.502;2023-04-24T09:19:11;24.00;;;14.73;;
32780;SDS011;19136;47.032;15.502;2023-04-24T09:21:37;28.55;;;15.10;;
32780;SDS011;19136;47.032;15.502;2023-04-24T09:24:05;25.42;;;14.48;;
32780;SDS011;19136;47.032;15.502;2023-04-24T09:26:34;22.45;;;14.05;;
32780;SDS011;19136;47.032;15.502;2023-04-24T09:29:00;28.77;;;16.55;;
32780;SDS011;19136;47.032;15.502;2023-04-24T09:31:27;24.60;;;14.20;;
32780;SDS011;19136;47.032;15.502;2023-04-24T09:36:29;23.52;;;13.88;;
32780;SDS011;19136;47.032;15.502;2023-04-24T09:39:01;25.00;;;14.85;;
32780;SDS011;19136;47.032;15.502;2023-04-24T09:41:27;23.83;;;14.13;;
32780;SDS011;19136;47.032;15.502;2023-04-24T09:43:56;21.55;;;13.55;;
32780;SDS011;19136;47.032;15.502;2023-04-24T09:46:29;16.23;;;10.52;;
32780;SDS011;19136;47.032;15.502;2023-04-24T09:49:07;17.10;;;9.15;;
32780;SDS011;19136;47.032;15.502;2023-04-24T09:51:42;14.70;;;6.03;;
32780;SDS011;19136;47.032;15.502;2023-04-24T09:54:15;10.95;;;6.35;;
32780;SDS011;19136;47.032;15.502;2023-04-24T09:56:46;12.50;;;5.60;;
32780;SDS011;19136;47.032;15.502;2023-04-24T09:59:14;9.30;;;3.75;;
32780;SDS011;19136;47.032;15.502;2023-04-24T10:01:40;4.53;;;2.88;;
32780;SDS011;19136;47.032;15.502;2023-04-24T10:04:16;4.63;;;3.35;;
32780;SDS011;19136;47.032;15.502;2023-04-24T10:06:43;4.72;;;2.95;;
32780;SDS011;19136;47.032;15.502;2023-04-24T10:09:10;8.35;;;3.38;;
32780;SDS011;19136;47.032;15.502;2023-04-24T10:11:37;5.40;;;2.40;;
32780;SDS011;19136;47.032;15.502;2023-04-24T10:14:05;4.47;;;2.00;;
32780;SDS011;19136;47.032;15.502;2023-04-24T10:16:31;3.55;;;1.67;;
32780;SDS011;19136;47.032;15.502;2023-04-24T10:18:58;4.28;;;2.50;;
32780;SDS011;19136;47.032;15.502;2023-04-24T10:21:25;4.07;;;1.77;;
32780;SDS011;19136;47.032;15.502;2023-04-24T10:23:52;3.47;;;1.65;;
32780;SDS011;19136;47.032;15.502;2023-04-24T10:26:18;6.28;;;1.90;;
32780;SDS011;19136;47.032;15.502;2023-04-24T10:28:45;1.60;;;1.38;;
32780;SDS011;19136;47.032;15.502;2023-04-24T10:31:11;1.85;;;1.20;;
32780;SDS011;19136;47.032;15.502;2023-04-24T10:33:38;4.47;;;1.30;;
32780;SDS011;19136;47.032;15.502;2023-04-24T10:36:06;5.13;;;1.65;;
32780;SDS011;19136;47.032;15.502;2023-04-24T10:38:33;1.63;;;1.15;;
32780;SDS011;19136;47.032;15.502;2023-04-24T10:43:34;3.05;;;1.15;;
32780;SDS011;19136;47.032;15.502;2023-04-24T10:46:01;3.33;;;1.20;;
32780;SDS011;19136;47.032;15.502;2023-04-24T10:48:28;2.25;;;1.30;;
32780;SDS011;19136;47.032;15.502;2023-04-24T10:50:54;2.78;;;1.20;;
32780;SDS011;19136;47.032;15.502;2023-04-24T10:53:20;1.20;;;0.95;;
32780;SDS011;19136;47.032;15.502;2023-04-24T10:55:49;4.35;;;1.10;;
32780;SDS011;19136;47.032;15.502;2023-04-24T10:58:16;2.70;;;2.00;;
32780;SDS011;19136;47.032;15.502;2023-04-24T11:00:55;14.07;;;10.68;;
32780;SDS011;19136;47.032;15.502;2023-04-24T11:03:29;107.13;;;85.13;;
32780;SDS011;19136;47.032;15.502;2023-04-24T11:11:03;42.17;;;33.08;;
32780;SDS011;19136;47.032;15.502;2023-04-24T11:18:52;1.83;;;1.00;;
32780;SDS011;19136;47.032;15.502;2023-04-24T11:21:25;5.55;;;1.08;;
32780;SDS011;19136;47.032;15.502;2023-04-24T11:23:51;1.88;;;0.70;;
32780;SDS011;19136;47.032;15.502;2023-04-24T11:26:23;1.30;;;0.73;;
32780;SDS011;19136;47.032;15.502;2023-04-24T11:28:55;1.38;;;0.82;;
32780;SDS011;19136;47.032;15.502;2023-04-24T11:31:38;2.30;;;1.20;;
32780;SDS011;19136;47.032;15.502;2023-04-24T11:34:15;3.30;;;1.00;;
32780;SDS011;19136;47.032;15.502;2023-04-24T11:36:45;1.40;;;0.73;;
32780;SDS011;19136;47.032;15.502;2023-04-24T11:39:11;1.40;;;0.85;;
32780;SDS011;19136;47.032;15.502;2023-04-24T11:41:37;1.73;;;1.00;;
32780;SDS011;19136;47.032;15.502;2023-04-24T11:44:03;1.27;;;0.70;;
32780;SDS011;19136;47.032;15.502;2023-04-24T11:46:31;0.80;;;0.70;;
32780;SDS011;19136;47.032;15.502;2023-04-24T11:48:57;1.55;;;0.90;;
32780;SDS011;19136;47.032;15.502;2023-04-24T11:51:24;4.50;;;1.23;;
32780;SDS011;19136;47.032;15.502;2023-04-24T11:53:56;0.98;;;0.60;;
32780;SDS011;19136;47.032;15.502;2023-04-24T11:56:22;0.93;;;0.70;;
32780;SDS011;19136;47.032;15.502;2023-04-24T11:58:48;1.23;;;0.50;;
32780;SDS011;19136;47.032;15.502;2023-04-24T12:01:17;8.05;;;0.80;;
32780;SDS011;19136;47.032;15.502;2023-04-24T12:03:47;2.88;;;0.60;;
32780;SDS011;19136;47.032;15.502;2023-04-24T12:06:13;1.00;;;0.70;;
32780;SDS011;19136;47.032;15.502;2023-04-24T12:08:39;1.58;;;0.70;;
32780;SDS011;19136;47.032;15.502;2023-04-24T12:11:05;3.00;;;0.68;;
32780;SDS011;19136;47.032;15.502;2023-04-24T12:13:35;1.10;;;0.75;;
32780;SDS011;19136;47.032;15.502;2023-04-24T12:16:02;1.88;;;1.58;;
32780;SDS011;19136;47.032;15.502;2023-04-24T12:18:29;2.05;;;1.10;;
32780;SDS011;19136;47.032;15.502;2023-04-24T12:20:55;1.67;;;0.98;;
32780;SDS011;19136;47.032;15.502;2023-04-24T12:23:36;2.75;;;0.75;;
32780;SDS011;19136;47.032;15.502;2023-04-24T12:26:05;1.05;;;0.57;;
32780;SDS011;19136;47.032;15.502;2023-04-24T12:28:35;2.00;;;0.60;;
32780;SDS011;19136;47.032;15.502;2023-04-24T12:31:01;1.05;;;0.50;;
32780;SDS011;19136;47.032;15.502;2023-04-24T12:33:27;0.77;;;0.55;;
32780;SDS011;19136;47.032;15.502;2023-04-24T12:35:53;2.35;;;0.70;;
32780;SDS011;19136;47.032;15.502;2023-04-24T12:38:23;1.92;;;0.50;;
32780;SDS011;19136;47.032;15.502;2023-04-24T12:41:00;2.35;;;0.70;;
32780;SDS011;19136;47.032;15.502;2023-04-24T12:43:30;2.17;;;0.98;;
32780;SDS011;19136;47.032;15.502;2023-04-24T12:45:56;0.80;;;0.52;;
32780;SDS011;19136;47.032;15.502;2023-04-24T12:48:22;0.77;;;0.50;;
32780;SDS011;19136;47.032;15.502;2023-04-24T12:50:48;5.18;;;0.70;;
32780;SDS011;19136;47.032;15.502;2023-04-24T12:53:14;3.20;;;0.80;;
32780;SDS011;19136;47.032;15.502;2023-04-24T12:55:40;1.00;;;0.60;;
32780;SDS011;19136;47.032;15.502;2023-04-24T12:58:05;4.30;;;0.60;;
32780;SDS011;19136;47.032;15.502;2023-04-24T13:00:32;1.50;;;0.50;;
32780;SDS011;19136;47.032;15.502;2023-04-24T13:02:57;1.13;;;0.60;;
32780;SDS011;19136;47.032;15.502;2023-04-24T13:05:23;1.17;;;0.50;;
32780;SDS011;19136;47.032;15.502;2023-04-24T13:07:49;1.33;;;0.45;;
32780;SDS011;19136;47.032;15.502;2023-04-24T13:10:15;0.93;;;0.52;;
32780;SDS011;19136;47.032;15.502;2023-04-24T13:12:40;3.05;;;0.90;;
32780;SDS011;19136;47.032;15.502;2023-04-24T13:15:06;1.42;;;0.50;;
32780;SDS011;19136;47.032;15.502;2023-04-24T13:17:32;1.10;;;0.60;;
32780;SDS011;19136;47.032;15.502;2023-04-24T13:19:58;2.13;;;0.60;;
32780;SDS011;19136;47.032;15.502;2023-04-24T13:22:24;2.28;;;0.55;;
32780;SDS011;19136;47.032;15.502;2023-04-24T13:24:50;1.77;;;0.73;;
32780;SDS011;19136;47.032;15.502;2023-04-24T13:27:16;0.98;;;0.65;;
32780;SDS011;19136;47.032;15.502;2023-04-24T13:29:42;4.50;;;0.93;;
32780;SDS011;19136;47.032;15.502;2023-04-24T13:32:08;2.88;;;0.50;;
32780;SDS011;19136;47.032;15.502;2023-04-24T13:34:33;0.98;;;0.70;;
32780;SDS011;19136;47.032;15.502;2023-04-24T13:37:02;2.25;;;0.60;;
32780;SDS011;19136;47.032;15.502;2023-04-24T13:39:28;1.90;;;0.60;;
32780;SDS011;19136;47.032;15.502;2023-04-24T13:41:54;2.65;;;0.85;;
32780;SDS011;19136;47.032;15.502;2023-04-24T13:44:20;3.55;;;0.90;;
32780;SDS011;19136;47.032;15.502;2023-04-24T13:46:48;4.93;;;0.82;;
32780;SDS011;19136;47.032;15.502;2023-04-24T13:49:15;6.13;;;0.70;;
32780;SDS011;19136;47.032;15.502;2023-04-24T13:51:41;2.60;;;0.90;;
32780;SDS011;19136;47.032;15.502;2023-04-24T13:54:07;3.92;;;0.90;;
32780;SDS011;19136;47.032;15.502;2023-04-24T13:56:33;3.78;;;0.77;;
32780;SDS011;19136;47.032;15.502;2023-04-24T13:58:59;1.50;;;0.77;;
32780;SDS011;19136;47.032;15.502;2023-04-24T14:01:24;1.92;;;1.00;;
32780;SDS011;19136;47.032;15.502;2023-04-24T14:03:50;6.35;;;2.42;;
32780;SDS011;19136;47.032;15.502;2023-04-24T14:06:20;3.50;;;1.30;;
32780;SDS011;19136;47.032;15.502;2023-04-24T14:08:46;2.30;;;1.15;;
32780;SDS011;19136;47.032;15.502;2023-04-24T14:11:12;5.63;;;1.00;;
32780;SDS011;19136;47.032;15.502;2023-04-24T14:13:38;1.40;;;1.00;;
32780;SDS011;19136;47.032;15.502;2023-04-24T14:16:04;4.47;;;1.10;;
32780;SDS011;19136;47.032;15.502;2023-04-24T14:18:30;4.45;;;1.17;;
32780;SDS011;19136;47.032;15.502;2023-04-24T14:20:55;2.78;;;1.10;;
32780;SDS011;19136;47.032;15.502;2023-04-24T14:23:21;2.75;;;1.27;;
32780;SDS011;19136;47.032;15.502;2023-04-24T14:25:47;1.55;;;1.02;;
32780;SDS011;19136;47.032;15.502;2023-04-24T14:28:16;2.25;;;1.50;;
32780;SDS011;19136;47.032;15.502;2023-04-24T14:30:43;3.28;;;1.15;;
32780;SDS011;19136;47.032;15.502;2023-04-24T14:33:08;2.67;;;1.50;;
32780;SDS011;19136;47.032;15.502;2023-04-24T14:35:34;3.85;;;2.00;;
32780;SDS011;19136;47.032;15.502;2023-04-24T14:38:00;1.55;;;1.10;;